Time;durP1;ratioP1;P1;durP2;ratioP2;P2;SDS_P1;SDS_P2;PMS_P1;PMS_P2;Temp;Humidity;BMP_temperature;BMP_pressure;BME280_temperature;BME280_humidity;BME280_pressure;Samples;Min_cycle;Max_cycle;Signal;HPM_P1;HPM_P2
2022/10/07 00:01:09;;;;;;;6.87;3.10;;;;;;;;;;5091955;28;20237;-75
2022/10/07 00:03:36;;;;;;;7.37;3.60;;;;;;;;;;5081193;28;20633;-76
2022/10/07 00:06:05;;;;;;;7.77;3.57;;;;;;;;;;5080927;28;20636;-75
2022/10/07 00:08:35;;;;;;;10.87;3.33;;;;;;;;;;5076322;28;20295;-76
2022/10/07 00:11:07;;;;;;;5.77;3.13;;;;;;;;;;5074967;28;20234;-76
2022/10/07 00:13:35;;;;;;;7.50;3.00;;;;;;;;;;5074710;28;20282;-76
2022/10/07 00:16:06;;;;;;;6.60;3.27;;;;;;;;;;5078452;28;20286;-75
2022/10/07 00:18:34;;;;;;;5.07;3.37;;;;;;;;;;5085732;28;20246;-76
2022/10/07 00:21:03;;;;;;;5.60;3.30;;;;;;;;;;5074697;28;20238;-75
2022/10/07 00:23:30;;;;;;;5.67;3.40;;;;;;;;;;5079780;28;20297;-75
2022/10/07 00:26:01;;;;;;;8.40;3.47;;;;;;;;;;5095143;28;20229;-75
2022/10/07 00:28:28;;;;;;;9.10;3.60;;;;;;;;;;5092148;28;20308;-76
2022/10/07 00:30:59;;;;;;;9.47;3.43;;;;;;;;;;5093359;28;20305;-76
2022/10/07 00:33:26;;;;;;;9.67;3.30;;;;;;;;;;5086459;28;20285;-76
2022/10/07 00:35:53;;;;;;;5.20;3.13;;;;;;;;;;5081550;28;20236;-75
2022/10/07 00:38:20;;;;;;;6.67;3.03;;;;;;;;;;5087188;28;20293;-76
2022/10/07 00:40:47;;;;;;;6.47;3.30;;;;;;;;;;5089203;28;20289;-75
2022/10/07 00:43:25;;;;;;;7.43;2.97;;;;;;;;;;5088561;28;20214;-76
2022/10/07 00:45:52;;;;;;;7.20;3.00;;;;;;;;;;5074075;28;20203;-76
2022/10/07 00:48:21;;;;;;;5.87;2.80;;;;;;;;;;5084137;28;20241;-75
2022/10/07 00:50:49;;;;;;;7.17;3.33;;;;;;;;;;5074136;28;20202;-76
2022/10/07 00:53:17;;;;;;;6.53;2.90;;;;;;;;;;5073509;28;20230;-76
2022/10/07 00:55:44;;;;;;;6.33;3.10;;;;;;;;;;5073233;28;20242;-76
2022/10/07 00:58:12;;;;;;;5.87;3.10;;;;;;;;;;5077515;28;20292;-76
2022/10/07 01:00:41;;;;;;;5.30;2.80;;;;;;;;;;5093387;28;20284;-76
2022/10/07 01:03:08;;;;;;;6.13;3.00;;;;;;;;;;5085417;28;20241;-76
2022/10/07 01:05:35;;;;;;;7.57;3.10;;;;;;;;;;5076970;28;20293;-76
2022/10/07 01:08:03;;;;;;;8.87;3.30;;;;;;;;;;5081821;28;20208;-76
2022/10/07 01:10:33;;;;;;;6.60;3.20;;;;;;;;;;5090349;28;20202;-75
2022/10/07 01:13:04;;;;;;;5.77;2.90;;;;;;;;;;5089121;28;20289;-76
2022/10/07 01:15:35;;;;;;;6.50;3.23;;;;;;;;;;5091424;28;20237;-76
2022/10/07 01:18:07;;;;;;;5.90;3.13;;;;;;;;;;5088152;28;20237;-76
2022/10/07 01:20:36;;;;;;;8.20;3.00;;;;;;;;;;5093769;28;20297;-75
2022/10/07 01:23:12;;;;;;;4.33;2.90;;;;;;;;;;5093243;28;20260;-76
2022/10/07 01:25:48;;;;;;;6.63;3.60;;;;;;;;;;5082060;28;20217;-76
2022/10/07 01:28:19;;;;;;;6.73;3.30;;;;;;;;;;5072946;28;20288;-75
2022/10/07 01:30:48;;;;;;;4.20;3.20;;;;;;;;;;5073040;28;20233;-75
2022/10/07 01:33:17;;;;;;;6.20;3.30;;;;;;;;;;5083599;28;20280;-76
2022/10/07 01:35:46;;;;;;;4.97;3.17;;;;;;;;;;5092454;28;20201;-75
2022/10/07 01:38:15;;;;;;;4.03;2.60;;;;;;;;;;5092861;28;20776;-76
2022/10/07 01:40:44;;;;;;;3.83;2.63;;;;;;;;;;5079552;28;20202;-75
2022/10/07 01:43:12;;;;;;;3.90;2.63;;;;;;;;;;5072699;28;20650;-76
2022/10/07 01:45:42;;;;;;;5.27;2.87;;;;;;;;;;5077804;28;20232;-75
2022/10/07 01:48:09;;;;;;;4.30;3.07;;;;;;;;;;5086891;28;20233;-76
2022/10/07 01:50:37;;;;;;;6.40;2.93;;;;;;;;;;5082548;28;20284;-76
2022/10/07 01:53:11;;;;;;;6.50;3.07;;;;;;;;;;5093248;28;20289;-75
2022/10/07 01:55:45;;;;;;;7.23;3.10;;;;;;;;;;5083634;28;20207;-75
2022/10/07 01:58:21;;;;;;;6.10;3.10;;;;;;;;;;5092781;28;20237;-75
2022/10/07 02:00:53;;;;;;;7.27;3.03;;;;;;;;;;5092169;28;20274;-76
2022/10/07 02:03:32;;;;;;;9.30;3.60;;;;;;;;;;5092615;28;20316;-76
2022/10/07 02:06:03;;;;;;;7.53;3.20;;;;;;;;;;5091084;28;20238;-76
2022/10/07 02:08:32;;;;;;;5.33;2.90;;;;;;;;;;5081267;28;20255;-75
2022/10/07 02:11:08;;;;;;;9.13;3.13;;;;;;;;;;5072715;28;20284;-75
2022/10/07 02:13:37;;;;;;;6.10;3.00;;;;;;;;;;5073234;28;20603;-75
2022/10/07 02:16:08;;;;;;;4.77;2.60;;;;;;;;;;5073488;28;20287;-76
2022/10/07 02:18:36;;;;;;;5.13;2.80;;;;;;;;;;5083834;28;20239;-75
2022/10/07 02:21:05;;;;;;;6.00;3.00;;;;;;;;;;5090539;28;20240;-76
2022/10/07 02:23:35;;;;;;;5.00;2.80;;;;;;;;;;5075368;28;20344;-75
2022/10/07 02:26:03;;;;;;;5.57;2.90;;;;;;;;;;5084046;28;20201;-76
2022/10/07 02:28:31;;;;;;;5.53;3.30;;;;;;;;;;5092265;28;20697;-76
2022/10/07 02:31:02;;;;;;;4.33;2.80;;;;;;;;;;5086359;28;20289;-75
2022/10/07 02:33:32;;;;;;;5.80;2.77;;;;;;;;;;5087123;28;20236;-75
2022/10/07 02:36:01;;;;;;;4.20;2.83;;;;;;;;;;5084153;28;20289;-75
2022/10/07 02:38:29;;;;;;;3.77;2.50;;;;;;;;;;5072805;28;20255;-75
2022/10/07 02:41:04;;;;;;;4.80;2.90;;;;;;;;;;5077946;28;20197;-76
2022/10/07 02:43:35;;;;;;;5.73;2.80;;;;;;;;;;5087592;28;20706;-76
2022/10/07 02:46:06;;;;;;;4.90;3.00;;;;;;;;;;5079105;28;20205;-76
2022/10/07 02:48:36;;;;;;;5.97;2.63;;;;;;;;;;5072128;28;20197;-76
2022/10/07 02:51:05;;;;;;;4.50;3.10;;;;;;;;;;5072224;28;20285;-75
2022/10/07 02:53:33;;;;;;;5.17;3.00;;;;;;;;;;5087281;28;20916;-75
2022/10/07 02:56:02;;;;;;;5.47;3.13;;;;;;;;;;5092025;28;20636;-76
2022/10/07 02:58:29;;;;;;;6.03;2.97;;;;;;;;;;5084511;28;20304;-76
2022/10/07 03:00:59;;;;;;;6.90;3.00;;;;;;;;;;5091852;28;20241;-75
2022/10/07 03:03:26;;;;;;;4.40;2.97;;;;;;;;;;5080750;28;20314;-76
2022/10/07 03:05:55;;;;;;;5.47;2.70;;;;;;;;;;5071866;28;20658;-76
2022/10/07 03:08:23;;;;;;;4.07;2.90;;;;;;;;;;5072258;28;20229;-75
2022/10/07 03:10:50;;;;;;;5.90;3.10;;;;;;;;;;5072031;28;20289;-76
2022/10/07 03:13:17;;;;;;;4.70;2.57;;;;;;;;;;5083715;28;20676;-75
2022/10/07 03:15:44;;;;;;;3.63;2.47;;;;;;;;;;5092479;28;20219;-76
2022/10/07 03:18:24;;;;;;;5.30;2.70;;;;;;;;;;5083177;28;20289;-76
2022/10/07 03:20:54;;;;;;;4.50;2.80;;;;;;;;;;5071863;28;20199;-76
2022/10/07 03:23:23;;;;;;;5.43;2.67;;;;;;;;;;5071500;28;20316;-76
2022/10/07 03:25:51;;;;;;;4.73;2.70;;;;;;;;;;5071818;28;20549;-76
2022/10/07 03:28:19;;;;;;;3.23;2.60;;;;;;;;;;5080197;28;20679;-75
2022/10/07 03:30:47;;;;;;;3.93;2.50;;;;;;;;;;5075883;28;20202;-76
2022/10/07 03:33:14;;;;;;;4.03;2.40;;;;;;;;;;5093741;28;20199;-76
2022/10/07 03:35:41;;;;;;;3.90;2.80;;;;;;;;;;5089458;28;20227;-76
2022/10/07 03:38:09;;;;;;;6.10;2.83;;;;;;;;;;5080895;28;20287;-75
2022/10/07 03:40:38;;;;;;;4.47;3.00;;;;;;;;;;5090867;28;20208;-76
2022/10/07 03:43:06;;;;;;;7.43;2.50;;;;;;;;;;5082897;28;20201;-76
2022/10/07 03:45:34;;;;;;;3.57;2.50;;;;;;;;;;5075254;28;20581;-76
2022/10/07 03:48:01;;;;;;;4.53;3.00;;;;;;;;;;5075123;28;20209;-76
2022/10/07 03:50:28;;;;;;;6.47;2.50;;;;;;;;;;5074880;28;20293;-76
2022/10/07 03:52:55;;;;;;;6.97;2.90;;;;;;;;;;5075085;28;20783;-76
2022/10/07 03:55:23;;;;;;;3.73;2.80;;;;;;;;;;5075064;28;20223;-76
2022/10/07 03:57:52;;;;;;;4.43;2.93;;;;;;;;;;5082316;28;20223;-75
2022/10/07 04:00:20;;;;;;;5.37;2.60;;;;;;;;;;5094779;28;20239;-76
2022/10/07 04:02:48;;;;;;;3.40;2.70;;;;;;;;;;5093110;28;20218;-76
2022/10/07 04:05:15;;;;;;;4.40;2.50;;;;;;;;;;5094998;28;20638;-76
2022/10/07 04:07:43;;;;;;;4.10;2.50;;;;;;;;;;5089542;28;20198;-76
2022/10/07 04:10:10;;;;;;;3.87;2.33;;;;;;;;;;5076905;28;20196;-76
2022/10/07 04:12:37;;;;;;;6.63;2.73;;;;;;;;;;5074043;28;20551;-75
2022/10/07 04:15:06;;;;;;;5.17;2.60;;;;;;;;;;5074564;28;20221;-75
2022/10/07 04:17:34;;;;;;;8.47;3.10;;;;;;;;;;5074512;28;20243;-75
2022/10/07 04:20:01;;;;;;;5.63;2.57;;;;;;;;;;5074387;28;20236;-76
2022/10/07 04:22:28;;;;;;;3.83;2.50;;;;;;;;;;5074948;28;20677;-75
2022/10/07 04:27:40;;;;;;;6.73;2.90;;;;;;;;;;5074588;28;20202;-76
2022/10/07 04:30:09;;;;;;;7.40;2.80;;;;;;;;;;5074417;28;20316;-77
2022/10/07 04:32:38;;;;;;;5.77;2.50;;;;;;;;;;5074172;28;20268;-75
2022/10/07 04:35:05;;;;;;;4.43;2.77;;;;;;;;;;5074318;28;20279;-76
2022/10/07 04:37:32;;;;;;;6.27;2.70;;;;;;;;;;5078311;28;20282;-76
2022/10/07 04:40:00;;;;;;;4.03;2.60;;;;;;;;;;5074350;28;20247;-75
2022/10/07 04:45:13;;;;;;;4.87;2.80;;;;;;;;;;5078085;28;20222;-75
2022/10/07 04:47:40;;;;;;;4.50;2.77;;;;;;;;;;5083716;28;20195;-75
2022/10/07 04:50:08;;;;;;;5.60;2.80;;;;;;;;;;5091288;28;20234;-75
2022/10/07 04:52:35;;;;;;;5.43;2.77;;;;;;;;;;5078630;28;20668;-76
2022/10/07 04:55:03;;;;;;;5.63;2.60;;;;;;;;;;5084902;28;20196;-76
2022/10/07 04:57:30;;;;;;;3.63;2.30;;;;;;;;;;5081169;28;20196;-76
2022/10/07 04:59:57;;;;;;;4.10;2.13;;;;;;;;;;5085286;28;20725;-75
2022/10/07 05:02:26;;;;;;;4.03;2.00;;;;;;;;;;5081538;28;20208;-75
2022/10/07 05:04:53;;;;;;;3.30;2.20;;;;;;;;;;5075060;28;20220;-76
2022/10/07 05:07:20;;;;;;;4.03;2.23;;;;;;;;;;5084272;28;20238;-78
2022/10/07 05:09:50;;;;;;;3.33;2.20;;;;;;;;;;5080771;28;20239;-77
2022/10/07 05:12:17;;;;;;;5.50;2.43;;;;;;;;;;5089463;28;20233;-77
2022/10/07 05:14:44;;;;;;;6.47;2.10;;;;;;;;;;5074496;28;20731;-77
2022/10/07 05:17:12;;;;;;;4.33;2.43;;;;;;;;;;5082716;28;20256;-76
2022/10/07 05:19:41;;;;;;;5.00;2.30;;;;;;;;;;5083240;28;20207;-78
2022/10/07 05:22:08;;;;;;;5.50;2.50;;;;;;;;;;5083259;28;20288;-77
2022/10/07 05:24:35;;;;;;;7.03;2.50;;;;;;;;;;5081975;28;20467;-77
2022/10/07 05:27:02;;;;;;;6.27;2.70;;;;;;;;;;5087228;28;20637;-77
2022/10/07 05:29:30;;;;;;;4.47;2.30;;;;;;;;;;5080890;28;20274;-77
2022/10/07 05:31:58;;;;;;;6.37;2.80;;;;;;;;;;5087275;28;20242;-78
2022/10/07 05:34:26;;;;;;;7.63;2.63;;;;;;;;;;5082971;28;20195;-78
2022/10/07 05:36:54;;;;;;;4.47;2.63;;;;;;;;;;5086724;28;20231;-78
2022/10/07 05:39:21;;;;;;;3.23;2.33;;;;;;;;;;5083168;28;20238;-79
2022/10/07 05:41:49;;;;;;;5.60;2.50;;;;;;;;;;5086383;28;20199;-77
2022/10/07 05:44:16;;;;;;;6.63;2.93;;;;;;;;;;5073871;28;20320;-76
2022/10/07 05:46:43;;;;;;;5.37;2.70;;;;;;;;;;5077070;28;20226;-76
2022/10/07 05:49:11;;;;;;;4.60;2.80;;;;;;;;;;5086171;28;20279;-76
2022/10/07 05:51:38;;;;;;;3.77;2.50;;;;;;;;;;5080861;28;20281;-76
2022/10/07 05:54:07;;;;;;;5.53;2.80;;;;;;;;;;5083372;28;20239;-76
2022/10/07 05:56:35;;;;;;;6.33;2.80;;;;;;;;;;5090441;28;20591;-77
2022/10/07 05:59:03;;;;;;;4.10;2.50;;;;;;;;;;5096885;28;20210;-76
2022/10/07 06:01:30;;;;;;;5.10;2.50;;;;;;;;;;5089298;28;20232;-77
2022/10/07 06:03:57;;;;;;;4.87;2.70;;;;;;;;;;5081518;28;20844;-76
2022/10/07 06:06:25;;;;;;;5.20;3.20;;;;;;;;;;5091538;28;20233;-76
2022/10/07 06:08:53;;;;;;;5.07;3.70;;;;;;;;;;5091881;28;20234;-76
2022/10/07 06:14:06;;;;;;;7.23;3.33;;;;;;;;;;5072575;28;20985;-76
2022/10/07 06:16:33;;;;;;;7.90;3.87;;;;;;;;;;5080858;28;20281;-76
2022/10/07 06:19:01;;;;;;;7.07;4.53;;;;;;;;;;5078473;28;20656;-77
2022/10/07 06:21:28;;;;;;;7.57;4.47;;;;;;;;;;5088569;28;20230;-77
2022/10/07 06:23:56;;;;;;;6.17;3.70;;;;;;;;;;5082891;28;20268;-76
2022/10/07 06:26:25;;;;;;;7.03;3.83;;;;;;;;;;5091820;28;20210;-76
2022/10/07 06:28:52;;;;;;;6.23;3.40;;;;;;;;;;5084816;28;20305;-76
2022/10/07 06:31:22;;;;;;;5.40;3.40;;;;;;;;;;5077188;28;20244;-76
2022/10/07 06:33:49;;;;;;;4.97;2.70;;;;;;;;;;5083244;28;20202;-76
2022/10/07 06:36:16;;;;;;;3.60;2.67;;;;;;;;;;5081098;28;20195;-76
2022/10/07 06:38:47;;;;;;;6.00;3.00;;;;;;;;;;5085712;28;20640;-77
2022/10/07 06:41:14;;;;;;;6.87;3.20;;;;;;;;;;5087018;28;20246;-77
2022/10/07 06:43:43;;;;;;;4.83;3.17;;;;;;;;;;5071977;28;20210;-77
2022/10/07 06:46:12;;;;;;;5.47;2.80;;;;;;;;;;5073574;28;20649;-77
2022/10/07 06:48:41;;;;;;;4.93;2.63;;;;;;;;;;5071772;28;20246;-76
2022/10/07 06:51:08;;;;;;;6.77;2.50;;;;;;;;;;5071446;28;20288;-76
2022/10/07 06:53:35;;;;;;;5.03;2.60;;;;;;;;;;5084525;28;20233;-76
2022/10/07 06:56:03;;;;;;;4.93;2.27;;;;;;;;;;5092928;28;20240;-76
2022/10/07 06:58:30;;;;;;;4.30;2.10;;;;;;;;;;5092102;28;20296;-77
2022/10/07 07:00:59;;;;;;;5.53;2.30;;;;;;;;;;5091633;28;20257;-77
2022/10/07 07:03:27;;;;;;;4.47;2.23;;;;;;;;;;5087891;28;20228;-77
2022/10/07 07:05:55;;;;;;;2.00;1.80;;;;;;;;;;5090492;28;20223;-77
2022/10/07 07:08:23;;;;;;;4.70;1.80;;;;;;;;;;5090321;28;20285;-77
2022/10/07 07:10:50;;;;;;;3.77;1.87;;;;;;;;;;5096282;28;20665;-77
2022/10/07 07:13:17;;;;;;;2.90;1.80;;;;;;;;;;5096412;28;20605;-76
2022/10/07 07:15:54;;;;;;;3.77;1.57;;;;;;;;;;5095834;28;20198;-76
2022/10/07 07:18:22;;;;;;;2.80;1.50;;;;;;;;;;5096345;28;20198;-76
2022/10/07 07:20:50;;;;;;;3.77;1.93;;;;;;;;;;5093979;28;20644;-76
2022/10/07 07:23:18;;;;;;;5.47;1.70;;;;;;;;;;5094936;28;20190;-77
2022/10/07 07:25:45;;;;;;;4.57;2.20;;;;;;;;;;5091985;28;20301;-77
2022/10/07 07:28:13;;;;;;;7.17;2.40;;;;;;;;;;5075943;28;20199;-78
2022/10/07 07:30:41;;;;;;;4.47;1.87;;;;;;;;;;5075334;28;20294;-77
2022/10/07 07:33:08;;;;;;;5.50;2.10;;;;;;;;;;5075975;28;20195;-77
2022/10/07 07:35:40;;;;;;;4.30;1.97;;;;;;;;;;5075042;28;20670;-78
2022/10/07 07:38:07;;;;;;;5.10;2.20;;;;;;;;;;5075074;28;20253;-78
2022/10/07 07:40:36;;;;;;;6.88;2.40;;;;;;;;;;5075801;28;20306;-76
2022/10/07 07:43:03;;;;;;;4.47;2.10;;;;;;;;;;5074880;28;20238;-78
2022/10/07 07:45:31;;;;;;;9.60;2.33;;;;;;;;;;5075332;28;20262;-78
2022/10/07 07:47:59;;;;;;;6.85;2.33;;;;;;;;;;5079452;28;20297;-78
2022/10/07 07:50:26;;;;;;;5.03;2.00;;;;;;;;;;5075260;28;20241;-78
2022/10/07 07:52:55;;;;;;;3.95;2.05;;;;;;;;;;5083767;28;20209;-78
2022/10/07 07:55:23;;;;;;;5.80;2.33;;;;;;;;;;5092478;28;20288;-78
2022/10/07 07:57:50;;;;;;;4.57;2.13;;;;;;;;;;5074975;28;20929;-78
2022/10/07 08:00:17;;;;;;;6.65;2.17;;;;;;;;;;5094762;28;20229;-78
2022/10/07 08:02:45;;;;;;;5.53;2.08;;;;;;;;;;5095256;28;20206;-78
2022/10/07 08:05:12;;;;;;;5.45;2.20;;;;;;;;;;5094722;28;20668;-78
2022/10/07 08:07:39;;;;;;;4.15;2.25;;;;;;;;;;5095373;28;20241;-78
2022/10/07 08:10:09;;;;;;;5.25;2.05;;;;;;;;;;5094664;28;20669;-79
2022/10/07 08:12:36;;;;;;;3.63;1.95;;;;;;;;;;5079078;28;20203;-78
2022/10/07 08:15:03;;;;;;;4.93;2.30;;;;;;;;;;5074514;28;20670;-78
2022/10/07 08:17:30;;;;;;;6.30;2.35;;;;;;;;;;5074700;28;20689;-79
2022/10/07 08:19:58;;;;;;;5.68;2.45;;;;;;;;;;5075688;28;20756;-79
2022/10/07 08:22:25;;;;;;;4.90;2.13;;;;;;;;;;5076773;28;20195;-79
2022/10/07 08:24:52;;;;;;;5.65;2.50;;;;;;;;;;5074880;28;20250;-79
2022/10/07 08:27:21;;;;;;;6.20;2.45;;;;;;;;;;5086926;28;20206;-79
2022/10/07 08:29:49;;;;;;;4.70;2.50;;;;;;;;;;5089231;28;20299;-79
2022/10/07 08:32:16;;;;;;;5.53;2.45;;;;;;;;;;5094123;28;20198;-79
2022/10/07 08:34:43;;;;;;;6.93;2.70;;;;;;;;;;5094479;28;20235;-79
2022/10/07 08:37:10;;;;;;;6.95;2.35;;;;;;;;;;5081299;28;20292;-79
2022/10/07 08:39:37;;;;;;;5.65;2.42;;;;;;;;;;5074073;28;20221;-79
2022/10/07 08:42:07;;;;;;;11.73;2.78;;;;;;;;;;5084497;28;20233;-79
2022/10/07 08:44:38;;;;;;;8.02;2.67;;;;;;;;;;5088493;28;20235;-78
2022/10/07 08:47:09;;;;;;;6.85;2.58;;;;;;;;;;5073923;28;20679;-78
2022/10/07 08:49:39;;;;;;;9.02;2.65;;;;;;;;;;5074470;28;20260;-78
2022/10/07 08:52:19;;;;;;;7.57;3.00;;;;;;;;;;5076478;28;20196;-78
2022/10/07 08:54:47;;;;;;;6.25;2.75;;;;;;;;;;5074147;28;20551;-78
2022/10/07 08:57:15;;;;;;;7.03;2.92;;;;;;;;;;5074184;28;20230;-78
2022/10/07 08:59:47;;;;;;;9.18;3.38;;;;;;;;;;5089445;28;20654;-78
2022/10/07 09:02:18;;;;;;;7.13;3.13;;;;;;;;;;5093643;28;20202;-78
2022/10/07 09:04:53;;;;;;;5.93;2.63;;;;;;;;;;5093129;28;20294;-79
2022/10/07 09:07:26;;;;;;;10.70;3.10;;;;;;;;;;5093142;28;20198;-78
2022/10/07 09:09:54;;;;;;;7.32;2.70;;;;;;;;;;5091551;28;20634;-78
2022/10/07 09:12:23;;;;;;;7.88;2.80;;;;;;;;;;5093527;28;20289;-79
2022/10/07 09:14:53;;;;;;;5.53;2.75;;;;;;;;;;5093441;28;20194;-79
2022/10/07 09:17:23;;;;;;;11.90;2.55;;;;;;;;;;5074758;28;20286;-79
2022/10/07 09:19:54;;;;;;;11.52;2.72;;;;;;;;;;5073417;28;20238;-79
2022/10/07 09:22:22;;;;;;;6.03;2.70;;;;;;;;;;5073579;28;20677;-79
2022/10/07 09:24:53;;;;;;;10.07;3.22;;;;;;;;;;5073155;28;20234;-79
2022/10/07 09:27:21;;;;;;;7.97;2.33;;;;;;;;;;5072694;28;20286;-79
2022/10/07 09:29:50;;;;;;;6.85;2.65;;;;;;;;;;5086400;28;20218;-78
2022/10/07 09:32:19;;;;;;;7.38;2.63;;;;;;;;;;5093033;28;20202;-78
2022/10/07 09:34:46;;;;;;;5.53;2.28;;;;;;;;;;5093045;28;20213;-78
2022/10/07 09:37:19;;;;;;;4.38;1.98;;;;;;;;;;5074292;28;20210;-78
2022/10/07 09:39:47;;;;;;;7.13;2.28;;;;;;;;;;5072942;28;20552;-79
2022/10/07 09:42:29;;;;;;;5.05;1.63;;;;;;;;;;5073126;28;20203;-78
2022/10/07 09:44:58;;;;;;;4.65;1.50;;;;;;;;;;5072396;28;20203;-78
2022/10/07 09:47:29;;;;;;;5.75;1.73;;;;;;;;;;5072888;28;20608;-79
2022/10/07 09:49:58;;;;;;;4.82;1.60;;;;;;;;;;5072801;28;20252;-78
2022/10/07 09:52:26;;;;;;;5.70;2.10;;;;;;;;;;5078444;28;20195;-79
2022/10/07 09:54:54;;;;;;;6.00;1.85;;;;;;;;;;5072541;28;20294;-79
2022/10/07 09:57:29;;;;;;;4.53;1.95;;;;;;;;;;5072670;28;20623;-78
2022/10/07 10:00:20;;;;;;;5.18;2.15;;;;;;;;;;5089981;28;20324;-79
2022/10/07 10:02:50;;;;;;;6.45;2.25;;;;;;;;;;5067704;28;20632;-78
2022/10/07 10:05:22;;;;;;;4.10;1.80;;;;;;;;;;5072894;28;20254;-78
2022/10/07 10:07:53;;;;;;;6.03;2.38;;;;;;;;;;5084954;28;20205;-78
2022/10/07 10:10:22;;;;;;;7.43;2.30;;;;;;;;;;5092771;28;20204;-78
2022/10/07 10:12:51;;;;;;;5.38;1.98;;;;;;;;;;5080135;28;20643;-79
2022/10/07 10:15:24;;;;;;;6.57;1.90;;;;;;;;;;5092691;28;20230;-79
2022/10/07 10:17:55;;;;;;;7.30;2.05;;;;;;;;;;5092742;28;20237;-78
2022/10/07 10:20:27;;;;;;;7.28;2.33;;;;;;;;;;5091318;28;20198;-79
2022/10/07 10:22:55;;;;;;;5.95;2.40;;;;;;;;;;5071646;28;20235;-79
2022/10/07 10:28:15;;;;;;;5.18;2.03;;;;;;;;;;5071301;28;20233;-79
2022/10/07 10:30:46;;;;;;;5.97;2.05;;;;;;;;;;5082011;28;20286;-79
2022/10/07 10:33:23;;;;;;;7.25;2.40;;;;;;;;;;5078989;28;20202;-78
2022/10/07 10:35:55;;;;;;;6.47;2.05;;;;;;;;;;5072574;28;20282;-79
2022/10/07 10:38:31;;;;;;;3.75;1.67;;;;;;;;;;5072088;28;20218;-79
2022/10/07 10:41:02;;;;;;;8.13;2.10;;;;;;;;;;5072129;28;20294;-79
2022/10/07 10:43:33;;;;;;;8.90;2.05;;;;;;;;;;5075153;28;20230;-79
2022/10/07 10:46:15;;;;;;;7.22;2.13;;;;;;;;;;5088173;28;20265;-79
2022/10/07 10:48:46;;;;;;;7.03;1.90;;;;;;;;;;5096340;28;20198;-79
2022/10/07 10:51:24;;;;;;;8.10;2.17;;;;;;;;;;5086942;28;20207;-79
2022/10/07 10:54:08;;;;;;;5.47;1.90;;;;;;;;;;5076554;28;20264;-79
2022/10/07 10:56:39;;;;;;;7.80;2.00;;;;;;;;;;5076354;28;20202;-79
2022/10/07 10:59:13;;;;;;;5.63;1.80;;;;;;;;;;5086525;28;20210;-79
2022/10/07 11:01:41;;;;;;;6.00;2.13;;;;;;;;;;5091807;28;20222;-78
2022/10/07 11:04:21;;;;;;;7.47;2.25;;;;;;;;;;5075814;28;20662;-78
2022/10/07 11:06:50;;;;;;;7.13;1.95;;;;;;;;;;5076341;28;20253;-79
2022/10/07 11:09:29;;;;;;;5.80;2.08;;;;;;;;;;5075746;28;20199;-79
2022/10/07 11:11:57;;;;;;;7.85;2.75;;;;;;;;;;5075272;28;20201;-79
2022/10/07 11:14:26;;;;;;;5.72;1.90;;;;;;;;;;5075568;28;20298;-79
2022/10/07 11:16:55;;;;;;;7.00;2.30;;;;;;;;;;5075335;28;20642;-78
2022/10/07 11:19:27;;;;;;;7.10;3.00;;;;;;;;;;5075319;28;20210;-79
2022/10/07 11:21:56;;;;;;;10.43;3.30;;;;;;;;;;5091828;28;20297;-79
2022/10/07 11:24:27;;;;;;;10.90;3.53;;;;;;;;;;5095102;28;20595;-79
2022/10/07 11:26:57;;;;;;;9.85;3.83;;;;;;;;;;5095029;28;20257;-78
2022/10/07 11:29:27;;;;;;;10.63;3.70;;;;;;;;;;5075782;28;20223;-78
2022/10/07 11:31:57;;;;;;;13.88;3.88;;;;;;;;;;5075564;28;20294;-79
2022/10/07 11:34:29;;;;;;;10.98;2.78;;;;;;;;;;5075308;28;20238;-79
2022/10/07 11:37:01;;;;;;;7.60;2.30;;;;;;;;;;5075635;28;20226;-78
2022/10/07 11:39:29;;;;;;;6.40;2.55;;;;;;;;;;5075462;28;20239;-79
2022/10/07 11:41:59;;;;;;;8.32;2.33;;;;;;;;;;5074785;28;20748;-78
2022/10/07 11:44:29;;;;;;;9.77;2.78;;;;;;;;;;5075439;28;20230;-78
2022/10/07 11:46:57;;;;;;;7.53;2.20;;;;;;;;;;5075064;28;20223;-78
2022/10/07 11:49:28;;;;;;;8.30;2.40;;;;;;;;;;5074415;28;20749;-79
2022/10/07 11:51:59;;;;;;;6.80;2.38;;;;;;;;;;5091405;28;20213;-78
2022/10/07 11:54:27;;;;;;;7.45;2.15;;;;;;;;;;5086304;28;20751;-78
2022/10/07 11:56:56;;;;;;;5.30;2.05;;;;;;;;;;5074676;28;20233;-78
2022/10/07 11:59:37;;;;;;;11.10;2.40;;;;;;;;;;5086214;28;20260;-79
2022/10/07 12:02:05;;;;;;;7.07;2.45;;;;;;;;;;5095210;28;20293;-79
2022/10/07 12:04:41;;;;;;;7.10;2.40;;;;;;;;;;5095084;28;20209;-78
2022/10/07 12:07:27;;;;;;;8.02;2.28;;;;;;;;;;5095218;28;20312;-79
2022/10/07 12:10:08;;;;;;;6.47;2.10;;;;;;;;;;5094512;28;20207;-79
2022/10/07 12:12:47;;;;;;;8.27;2.20;;;;;;;;;;5095513;28;20202;-78
2022/10/07 12:15:24;;;;;;;5.30;2.03;;;;;;;;;;5095097;28;20216;-79
2022/10/07 12:17:54;;;;;;;8.55;2.30;;;;;;;;;;5075686;28;20282;-78
2022/10/07 12:20:45;;;;;;;8.48;2.20;;;;;;;;;;5079524;28;20638;-79
2022/10/07 12:23:31;;;;;;;7.97;2.35;;;;;;;;;;5074504;28;20198;-78
2022/10/07 12:26:00;;;;;;;7.57;2.53;;;;;;;;;;5074015;28;20226;-79
2022/10/07 12:28:28;;;;;;;7.10;2.17;;;;;;;;;;5076944;28;20257;-78
2022/10/07 12:30:56;;;;;;;8.52;2.60;;;;;;;;;;5094642;28;20237;-78
2022/10/07 12:33:30;;;;;;;7.63;2.28;;;;;;;;;;5093493;28;20208;-78
2022/10/07 12:35:57;;;;;;;6.65;2.13;;;;;;;;;;5080065;28;20187;-78
2022/10/07 12:38:26;;;;;;;10.32;2.50;;;;;;;;;;5094450;28;20289;-79
2022/10/07 12:41:12;;;;;;;8.55;2.33;;;;;;;;;;5094461;28;20226;-78
2022/10/07 12:43:48;;;;;;;8.57;2.40;;;;;;;;;;5094725;28;20198;-78
2022/10/07 12:46:17;;;;;;;9.27;2.95;;;;;;;;;;5093353;28;20253;-78
2022/10/07 12:48:46;;;;;;;9.98;2.75;;;;;;;;;;5093500;28;20213;-78
2022/10/07 12:51:17;;;;;;;8.07;2.30;;;;;;;;;;5087604;28;20758;-79
2022/10/07 12:53:46;;;;;;;8.68;2.65;;;;;;;;;;5073754;28;20202;-79
2022/10/07 12:56:18;;;;;;;9.00;2.17;;;;;;;;;;5073714;28;20210;-78
2022/10/07 13:01:54;;;;;;;8.45;2.47;;;;;;;;;;5090436;28;20202;-78
2022/10/07 13:04:30;;;;;;;8.38;2.50;;;;;;;;;;5073291;28;20635;-78
2022/10/07 13:07:25;;;;;;;6.97;2.38;;;;;;;;;;5086898;28;20225;-78
2022/10/07 13:10:12;;;;;;;8.63;1.73;;;;;;;;;;5093744;28;20690;-79
2022/10/07 13:12:42;;;;;;;6.88;2.25;;;;;;;;;;5093877;28;20299;-78
2022/10/07 13:15:16;;;;;;;6.05;2.10;;;;;;;;;;5082822;28;20203;-78
2022/10/07 13:17:47;;;;;;;7.88;2.20;;;;;;;;;;5073513;28;20226;-78
2022/10/07 13:20:27;;;;;;;8.85;2.38;;;;;;;;;;5090310;28;20245;-78
2022/10/07 13:22:55;;;;;;;9.90;2.55;;;;;;;;;;5072958;28;20230;-79
2022/10/07 13:25:22;;;;;;;11.05;3.08;;;;;;;;;;5076268;28;20319;-78
2022/10/07 13:27:52;;;;;;;10.95;2.92;;;;;;;;;;5093710;28;20258;-78
2022/10/07 13:30:35;;;;;;;9.15;2.95;;;;;;;;;;5093980;28;20272;-78
2022/10/07 13:33:16;;;;;;;9.85;3.33;;;;;;;;;;5093685;28;20273;-79
2022/10/07 13:35:43;;;;;;;11.63;2.50;;;;;;;;;;5081100;28;20233;-78
2022/10/07 13:38:21;;;;;;;8.23;2.15;;;;;;;;;;5091334;28;20285;-78
2022/10/07 13:40:53;;;;;;;7.45;2.50;;;;;;;;;;5080254;28;20284;-78
2022/10/07 13:43:22;;;;;;;8.82;2.25;;;;;;;;;;5073299;28;20285;-78
2022/10/07 13:45:50;;;;;;;8.18;2.20;;;;;;;;;;5073218;28;20205;-78
2022/10/07 13:48:18;;;;;;;10.43;2.97;;;;;;;;;;5073161;28;20223;-78
2022/10/07 13:50:48;;;;;;;7.72;2.60;;;;;;;;;;5087301;28;20229;-78
2022/10/07 13:53:20;;;;;;;9.77;2.45;;;;;;;;;;5072496;28;20203;-78
2022/10/07 13:55:48;;;;;;;8.77;2.53;;;;;;;;;;5072703;28;20666;-78
2022/10/07 13:58:15;;;;;;;9.55;2.63;;;;;;;;;;5080540;28;20286;-78
2022/10/07 14:00:45;;;;;;;8.32;2.75;;;;;;;;;;5081720;28;20679;-78
2022/10/07 14:03:17;;;;;;;8.57;3.15;;;;;;;;;;5087888;28;20238;-78
2022/10/07 14:05:48;;;;;;;9.88;3.30;;;;;;;;;;5071064;28;20709;-78
2022/10/07 14:08:20;;;;;;;9.60;3.67;;;;;;;;;;5082023;28;20258;-79
2022/10/07 14:10:54;;;;;;;10.73;3.50;;;;;;;;;;5081323;28;20577;-78
2022/10/07 14:13:21;;;;;;;9.48;3.08;;;;;;;;;;5081384;28;20284;-79
2022/10/07 14:15:50;;;;;;;7.30;2.45;;;;;;;;;;5071519;28;20730;-78
2022/10/07 14:18:19;;;;;;;7.88;2.80;;;;;;;;;;5071298;28;20192;-78
2022/10/07 14:20:50;;;;;;;8.45;2.55;;;;;;;;;;5072661;28;20207;-78
2022/10/07 14:23:24;;;;;;;11.15;2.58;;;;;;;;;;5072284;28;20238;-78
2022/10/07 14:25:54;;;;;;;8.52;2.30;;;;;;;;;;5080895;28;20198;-78
2022/10/07 14:28:27;;;;;;;7.45;1.92;;;;;;;;;;5092354;28;20229;-78
2022/10/07 14:37:00;;;;;;;8.93;1.95;;;;;;;;;;5085448;28;21001;-79
2022/10/07 14:39:31;;;;;;;5.30;1.88;;;;;;;;;;5092768;28;20198;-78
2022/10/07 14:41:59;;;;;;;9.48;2.00;;;;;;;;;;5092186;28;20209;-78
2022/10/07 14:44:26;;;;;;;8.20;1.98;;;;;;;;;;5076822;28;20235;-78
2022/10/07 14:47:02;;;;;;;6.53;1.90;;;;;;;;;;5080627;28;20317;-78
2022/10/07 14:49:31;;;;;;;6.07;1.73;;;;;;;;;;5087643;28;20202;-78
2022/10/07 14:51:59;;;;;;;8.85;2.33;;;;;;;;;;5092377;28;20217;-78
2022/10/07 14:54:27;;;;;;;6.97;2.05;;;;;;;;;;5092855;28;20244;-78
2022/10/07 14:56:54;;;;;;;7.28;2.17;;;;;;;;;;5074985;28;20282;-78
2022/10/07 14:59:22;;;;;;;10.98;3.05;;;;;;;;;;5074920;28;20826;-78
2022/10/07 15:01:49;;;;;;;8.07;1.83;;;;;;;;;;5072089;28;20199;-79
2022/10/07 15:04:16;;;;;;;7.43;1.75;;;;;;;;;;5089669;28;20255;-78
2022/10/07 15:06:45;;;;;;;6.68;1.65;;;;;;;;;;5092409;28;20632;-79
2022/10/07 15:09:13;;;;;;;7.13;1.63;;;;;;;;;;5087973;28;20281;-78
2022/10/07 15:11:41;;;;;;;6.20;1.75;;;;;;;;;;5085916;28;20281;-78
2022/10/07 15:14:09;;;;;;;8.02;2.10;;;;;;;;;;5092232;28;20206;-78
2022/10/07 15:16:37;;;;;;;6.88;1.58;;;;;;;;;;5081513;28;22081;-78
2022/10/07 15:19:04;;;;;;;7.15;1.70;;;;;;;;;;5081940;28;20306;-78